• Join FlightAware (Why Join?)
  • Login
  • US Flag 
01:14PM EDT


 

Airport Tracker/Info


-or-


 

Live Flight TrackerFlight Track Log ✈ EMD24 ✈ 19-Jun-2013 ✈ KPHG - KMKC

Flight Track Log - Related Links

Times and Time Zones

All times are in EDT time to prevent confusion due to time zone crossing. See the EMD24 flight status page for this flight to view local times or setup timezone preferences in your user account.

Time Position Orientation Groundspeed Altitude Reporting Facility
EDT Latitude Longitude Course Direction KTS MPH feet Rate Location/Type
01:01AM 39.7225 -99.1769 100° East 161 185 6,400  Level Denver Center
01:02AM 39.7147 -99.1217 100° East 157 181 7,700 1,380 Climbing Denver Center
01:03AM 39.7089 -99.0506 96° East 162 186 9,500 1,320 Climbing Denver Center
01:04AM 39.7025 -98.9914 98° East 165 190 10,700 1,200 Climbing Denver Center
01:05AM 39.6922 -98.9342 103° East 164 189 12,000 1,140 Climbing Denver Center
01:06AM 39.6833 -98.8714 100° East 172 198 13,100 1,140 Climbing Denver Center
01:08AM 39.6758 -98.7836 96° East 174 200 14,700 780 Climbing Minneapolis Center
01:09AM 39.6722 -98.7158 94° East 179 206 15,000 120 Climbing Minneapolis Center
01:10AM 39.6594 -98.6294 101° East 215 247 15,000 -60 Level Minneapolis Center
01:11AM 39.6503 -98.5408 98° East 239 275 14,900  Descending Minneapolis Center
01:12AM 39.6406 -98.4544 98° East 241 277 15,000  Climbing Minneapolis Center
01:13AM 39.6306 -98.3692 99° East 241 277 15,000  Level Minneapolis Center
01:14AM 39.6228 -98.2981 98° East 241 277 15,000  Level Kansas City Center
01:15AM 39.6114 -98.2069 99° East 244 281 15,000  Level Kansas City Center
01:16AM 39.6011 -98.1189 99° East 246 283 15,000 -60 Level Kansas City Center
01:17AM 39.5919 -98.0300 98° East 247 284 14,900  Descending Kansas City Center
01:18AM 39.5806 -97.9422 100° East 247 284 15,000  Climbing Kansas City Center
01:19AM 39.5703 -97.8533 99° East 249 287 15,000 -60 Level Kansas City Center
01:20AM 39.5597 -97.7664 99° East 245 282 14,900  Descending Kansas City Center
01:21AM 39.5492 -97.6769 99° East 249 287 15,000  Climbing Kansas City Center
01:22AM 39.5392 -97.5889 98° East 247 284 15,000  Level Kansas City Center
01:23AM 39.5250 -97.4947 101° East 250 288 15,000  Level Kansas City Center
01:24AM 39.5142 -97.4094 99° East 249 287 15,000  Level Kansas City Center
01:25AM 39.5031 -97.3158 99° East 251 289 15,000  Level Kansas City Center
01:26AM 39.4908 -97.2306 100° East 250 288 15,000  Level Kansas City Center
01:27AM 39.4794 -97.1389 99° East 248 285 15,000  Level Kansas City Center
01:28AM 39.4683 -97.0539 100° East 249 287 15,000  Level Kansas City Center
01:29AM 39.4578 -96.9617 98° East 247 284 15,000  Level Kansas City Center
01:30AM 39.4447 -96.8772 101° East 249 287 15,000  Level Kansas City Center
01:31AM 39.4331 -96.7864 99° East 245 282 15,000  Level Kansas City Center
01:32AM 39.4231 -96.7022 99° East 245 282 15,000  Level Kansas City Center
01:33AM 39.4092 -96.6106 101° East 248 285 15,000 -60 Level Kansas City Center
01:34AM 39.3969 -96.5253 100° East 249 287 14,900  Descending Kansas City Center
01:35AM 39.3844 -96.4325 100° East 251 289 15,000  Climbing Kansas City Center
01:36AM 39.3747 -96.3492 99° East 245 282 15,000  Level Kansas City Center
01:37AM 39.3647 -96.2653 99° East 245 282 15,000  Level Kansas City Center
01:38AM 39.3517 -96.1747 101° East 245 282 15,000  Level Kansas City Center
01:39AM 39.3408 -96.0936 100° East 248 285 15,100  Climbing Kansas City Center
01:40AM 39.3258 -96.0122 103° East 245 282 15,100 -60 Level Kansas City Center
01:41AM 39.3156 -95.9147 98° East 245 282 15,000 -60 Descending Kansas City Center
01:42AM 39.3044 -95.8319 100° East 244 281 15,000  Level Kansas City Center
01:43AM 39.2917 -95.7497 101° East 244 281 15,000  Level Kansas City Center
01:44AM 39.2786 -95.6536 100° East 244 281 15,000  Level Kansas City Center
01:45AM 39.2672 -95.5706 100° East 246 283 15,100  Climbing Kansas City Center
01:46AM 39.2561 -95.4875 100° East 246 283 15,000 -600 Descending Kansas City Center
01:47AM 39.2392 -95.3914 103° East 261 300 13,900 -1,140 Descending Kansas City Center
01:48AM 39.2267 -95.2917 99° East 275 316 12,800 -1,380 Descending Kansas City Center
01:49AM 39.2142 -95.1942 99° East 265 305 11,200 -1,680 Descending Kansas City Center
01:50AM 39.2039 -95.1106 99° East 252 290 9,500 -1,680 Descending Kansas City Center
01:51AM 39.1942 -95.0289 99° East 242 278 7,900 -1,500 Descending Kansas City Center
01:52AM 39.1842 -94.9483 99° East 239 275 6,500 -1,500 Descending Kansas City Center
01:53AM 39.1675 -94.8617 104° East 224 258 4,900 -1,200 Descending Kansas City Center
01:54AM 39.1656 -94.7886 92° East 214 246 4,100 -720 Descending Kansas City Center
01:55AM 39.1639 -94.7236 92° East 192 221 3,500 -780 Descending Kansas City Center
01:56AM 39.1564 -94.6631 99° East 177 204 2,600 -960 Descending Kansas City Center
01:57AM 39.1581 -94.6044 88° East 145 167 1,600 -840 Descending Kansas City Center
01:58AM 39.1325 -94.5856 150° Southeast 119 137 1,000 -600 Descending Kansas City Center
02:00AM 39.1167 -94.5833 131° Southeast  Level FlightAware Approximate